createdAt,value
2023-05-13T00:03:13.243Z,9.20
2023-05-13T00:08:16.908Z,11.60
2023-05-13T00:13:20.011Z,10.60
2023-05-13T00:18:23.230Z,17.80
2023-05-13T00:23:26.506Z,10.60
2023-05-13T00:28:29.774Z,10.30
2023-05-13T00:33:32.855Z,10.90
2023-05-13T00:38:36.308Z,11.10
2023-05-13T00:43:39.409Z,10.00
2023-05-13T00:48:42.568Z,9.50
2023-05-13T00:53:45.770Z,10.00
2023-05-13T00:58:49.019Z,9.50
2023-05-13T01:04:11.210Z,9.70
2023-05-13T01:09:34.632Z,9.90
2023-05-13T01:14:41.113Z,9.60
2023-05-13T01:19:44.208Z,11.00
2023-05-13T01:24:47.418Z,10.60
2023-05-13T01:29:50.884Z,10.30
2023-05-13T01:34:55.526Z,11.10
2023-05-13T01:39:58.824Z,11.90
2023-05-13T01:45:02.794Z,10.30
2023-05-13T01:50:06.428Z,11.00
2023-05-13T01:55:09.709Z,10.20
2023-05-13T02:00:13.153Z,9.70
2023-05-13T02:05:17.228Z,9.20
2023-05-13T02:10:20.516Z,9.40
2023-05-13T02:15:23.692Z,9.00
2023-05-13T02:20:26.871Z,8.80
2023-05-13T02:25:29.918Z,9.60
2023-05-13T02:30:33.012Z,8.60
2023-05-13T02:35:36.182Z,9.70
2023-05-13T02:40:39.348Z,10.60
2023-05-13T02:45:42.467Z,8.50
2023-05-13T02:50:45.619Z,9.20
2023-05-13T02:55:48.768Z,9.30
2023-05-13T03:00:51.836Z,11.50
2023-05-13T03:05:54.931Z,12.20
2023-05-13T03:10:58.532Z,13.40
2023-05-13T03:16:01.613Z,13.40
2023-05-13T03:21:04.937Z,12.60
2023-05-13T03:26:08.013Z,11.40
2023-05-13T03:31:11.273Z,8.20
2023-05-13T03:36:14.932Z,9.50
2023-05-13T03:41:18.149Z,8.30
2023-05-13T03:46:24.436Z,7.10
2023-05-13T03:51:27.702Z,7.40
2023-05-13T03:56:30.851Z,7.20
2023-05-13T04:01:35.052Z,6.50
2023-05-13T04:06:38.157Z,7.10
2023-05-13T04:11:41.275Z,7.60
2023-05-13T04:16:44.539Z,6.90
2023-05-13T04:21:47.855Z,6.40
2023-05-13T04:26:51.148Z,6.90
2023-05-13T04:31:54.298Z,6.80
2023-05-13T04:36:57.464Z,6.80
2023-05-13T04:42:00.595Z,7.00
2023-05-13T04:47:03.728Z,6.70
2023-05-13T04:52:07.481Z,7.60
2023-05-13T04:57:10.689Z,7.80
2023-05-13T05:02:13.820Z,8.90
2023-05-13T05:07:17.195Z,7.80
2023-05-13T05:12:20.349Z,7.90
2023-05-13T05:17:24.220Z,6.80
2023-05-13T05:22:27.599Z,6.90
2023-05-13T05:27:30.706Z,6.40
2023-05-13T05:32:34.349Z,6.10
2023-05-13T05:37:37.445Z,6.20
2023-05-13T05:42:41.272Z,6.60
2023-05-13T05:47:44.446Z,6.60
2023-05-13T05:52:47.571Z,6.30
2023-05-13T05:57:51.103Z,6.00
2023-05-13T06:02:54.329Z,5.60
2023-05-13T06:07:57.568Z,6.40
2023-05-13T06:13:00.743Z,5.60
2023-05-13T06:18:06.041Z,5.80
2023-05-13T06:23:10.225Z,6.10
2023-05-13T06:28:13.426Z,5.70
2023-05-13T06:33:16.658Z,5.20
2023-05-13T06:38:19.774Z,5.90
2023-05-13T06:43:22.910Z,5.60
2023-05-13T06:48:26.029Z,4.70
2023-05-13T06:53:29.226Z,5.60
2023-05-13T06:58:32.495Z,5.30
2023-05-13T07:03:35.710Z,5.60
2023-05-13T07:08:38.987Z,5.60
2023-05-13T07:13:42.116Z,5.20
2023-05-13T07:18:45.340Z,4.70
2023-05-13T07:23:48.528Z,5.30
2023-05-13T07:28:51.722Z,4.90
2023-05-13T07:33:54.962Z,4.30
2023-05-13T07:38:58.135Z,4.50
2023-05-13T07:44:01.449Z,4.70
2023-05-13T07:49:06.893Z,3.60
2023-05-13T07:54:10.560Z,3.30
2023-05-13T07:59:13.837Z,3.40
2023-05-13T08:04:17.711Z,3.60
2023-05-13T08:09:21.567Z,3.30
2023-05-13T08:14:25.195Z,3.20
2023-05-13T08:19:28.487Z,3.30
2023-05-13T08:24:31.702Z,2.80
2023-05-13T08:29:35.331Z,3.20
2023-05-13T08:34:38.502Z,3.10
2023-05-13T08:39:41.954Z,2.70
2023-05-13T08:44:46.174Z,2.90
2023-05-13T08:49:50.957Z,2.60
2023-05-13T08:54:54.763Z,2.70
2023-05-13T08:59:57.860Z,2.50
2023-05-13T09:05:05.741Z,2.60
2023-05-13T09:10:09.664Z,2.60
2023-05-13T09:15:13.940Z,2.40
2023-05-13T09:20:18.189Z,2.30
2023-05-13T09:25:24.656Z,2.60
2023-05-13T09:30:29.681Z,2.60
2023-05-13T09:35:33.410Z,2.70
2023-05-13T09:40:38.202Z,2.80
2023-05-13T09:45:41.580Z,2.50
2023-05-13T09:50:52.712Z,2.90
2023-05-13T09:55:57.308Z,2.90
2023-05-13T10:01:00.799Z,2.50
2023-05-13T10:06:05.579Z,2.50
2023-05-13T10:11:09.158Z,2.50
2023-05-13T10:16:12.346Z,2.30
2023-05-13T10:21:16.369Z,2.70
2023-05-13T10:26:20.705Z,2.50
2023-05-13T10:31:25.130Z,2.70
2023-05-13T10:36:46.461Z,2.30
2023-05-13T10:42:08.589Z,2.30
2023-05-13T10:47:11.934Z,2.40
2023-05-13T10:52:15.605Z,2.40
2023-05-13T10:57:27.728Z,2.30
2023-05-13T11:02:32.649Z,2.20
2023-05-13T11:07:42.016Z,2.50
2023-05-13T11:13:05.211Z,2.70
2023-05-13T11:18:08.914Z,2.60
2023-05-13T11:23:17.137Z,2.70
2023-05-13T11:28:41.337Z,2.60
2023-05-13T11:34:03.585Z,2.40
2023-05-13T11:39:14.338Z,2.60
2023-05-13T11:44:19.041Z,2.60
2023-05-13T11:49:35.478Z,2.80
2023-05-13T11:54:47.782Z,2.80
2023-05-13T11:59:55.701Z,2.60
2023-05-13T12:05:06.805Z,2.50
2023-05-13T12:10:10.046Z,2.50
2023-05-13T12:15:17.400Z,2.70
2023-05-13T12:20:21.433Z,2.60
2023-05-13T12:25:33.764Z,2.40
2023-05-13T12:30:38.049Z,2.70
2023-05-13T12:35:41.619Z,2.80
2023-05-13T12:40:45.630Z,3.00
2023-05-13T12:45:53.822Z,2.50
2023-05-13T12:50:56.977Z,2.60
2023-05-13T12:56:00.009Z,2.80
2023-05-13T13:01:03.275Z,2.60
2023-05-13T13:06:06.449Z,2.40
2023-05-13T13:11:10.116Z,2.40
2023-05-13T13:16:13.707Z,2.70
2023-05-13T13:21:16.999Z,2.60
2023-05-13T13:26:20.152Z,2.40
2023-05-13T13:31:23.270Z,2.80
2023-05-13T13:36:26.780Z,2.50
2023-05-13T13:41:30.214Z,2.90
2023-05-13T13:46:33.575Z,2.40
2023-05-13T13:51:36.760Z,2.30
2023-05-13T13:56:40.168Z,2.70
2023-05-13T14:01:46.057Z,2.30
2023-05-13T14:06:49.941Z,2.50
2023-05-13T14:11:53.093Z,2.60
2023-05-13T14:16:56.258Z,2.50
2023-05-13T14:21:59.428Z,2.60
2023-05-13T14:27:02.526Z,2.50
2023-05-13T14:32:05.903Z,2.80
2023-05-13T14:37:09.828Z,2.60
2023-05-13T14:42:12.952Z,2.40
2023-05-13T14:47:16.146Z,2.50
2023-05-13T14:52:19.206Z,2.40
2023-05-13T14:57:22.580Z,2.60
2023-05-13T15:02:25.857Z,2.50
2023-05-13T15:07:29.174Z,2.40
2023-05-13T15:12:32.300Z,2.40
2023-05-13T15:17:36.545Z,2.90
2023-05-13T15:22:40.310Z,2.80
2023-05-13T15:27:44.790Z,2.60
2023-05-13T15:32:48.227Z,2.60
2023-05-13T15:37:51.563Z,1.90
2023-05-13T15:42:56.407Z,1.90
2023-05-13T15:48:00.793Z,1.80
2023-05-13T15:53:03.950Z,2.20
2023-05-13T15:58:07.934Z,2.10
2023-05-13T16:03:11.725Z,2.10
2023-05-13T16:08:22.747Z,2.60
2023-05-13T16:13:26.130Z,3.60
2023-05-13T16:18:29.263Z,3.80
2023-05-13T16:23:32.386Z,3.10
2023-05-13T16:28:35.547Z,2.90
2023-05-13T16:33:38.821Z,3.00
2023-05-13T16:38:41.988Z,3.30
2023-05-13T16:43:45.649Z,2.30
2023-05-13T16:48:48.884Z,2.10
2023-05-13T16:53:52.019Z,2.30
2023-05-13T16:58:55.103Z,2.30
2023-05-13T17:03:58.200Z,2.40
2023-05-13T17:09:01.726Z,2.70
2023-05-13T17:14:05.411Z,3.30
2023-05-13T17:19:09.300Z,3.00
2023-05-13T17:24:12.481Z,3.70
2023-05-13T17:29:15.744Z,3.40
2023-05-13T17:34:20.380Z,3.50
2023-05-13T17:39:23.515Z,3.80
2023-05-13T17:44:26.678Z,4.20
2023-05-13T17:49:29.900Z,4.10
2023-05-13T17:54:33.118Z,4.30
2023-05-13T17:59:36.264Z,4.80
2023-05-13T18:04:39.442Z,4.40
2023-05-13T18:09:42.981Z,4.90
2023-05-13T18:14:46.608Z,4.30
2023-05-13T18:19:49.769Z,4.10
2023-05-13T18:24:53.996Z,5.70
2023-05-13T18:29:57.342Z,6.70
2023-05-13T18:35:00.496Z,8.50
2023-05-13T18:40:03.965Z,10.00
2023-05-13T18:45:08.349Z,9.00
2023-05-13T18:50:11.648Z,7.90
2023-05-13T18:55:15.936Z,8.20
2023-05-13T19:00:19.750Z,7.70
2023-05-13T19:05:23.223Z,6.00
2023-05-13T19:10:26.574Z,4.20
2023-05-13T19:15:30.175Z,4.10
2023-05-13T19:20:33.346Z,4.50
2023-05-13T19:25:41.376Z,4.60
2023-05-13T19:30:44.664Z,4.40
2023-05-13T19:35:48.056Z,4.60
2023-05-13T19:40:54.867Z,4.60
2023-05-13T19:45:58.160Z,5.00
2023-05-13T19:51:01.506Z,5.10
2023-05-13T19:56:05.433Z,7.10
2023-05-13T20:01:09.995Z,8.20
2023-05-13T20:06:13.413Z,10.60
2023-05-13T20:11:16.577Z,14.20
2023-05-13T20:16:22.725Z,9.10
2023-05-13T20:21:26.004Z,10.20
2023-05-13T20:26:29.184Z,11.50
2023-05-13T20:31:32.476Z,11.80
2023-05-13T20:36:36.842Z,11.70
2023-05-13T20:41:40.071Z,11.20
2023-05-13T20:46:43.636Z,10.00
2023-05-13T20:51:48.170Z,10.10
2023-05-13T20:56:51.360Z,10.90
2023-05-13T21:01:54.546Z,11.30
2023-05-13T21:06:57.862Z,10.80
2023-05-13T21:12:01.081Z,9.70
2023-05-13T21:17:04.224Z,9.60
2023-05-13T21:22:07.391Z,9.30
2023-05-13T21:27:10.557Z,10.10
2023-05-13T21:32:14.236Z,9.70
2023-05-13T21:37:17.508Z,10.70
2023-05-13T21:42:21.069Z,9.70
2023-05-13T21:47:24.499Z,10.60
2023-05-13T21:52:27.709Z,10.40
2023-05-13T21:57:30.890Z,11.70
2023-05-13T22:02:34.846Z,10.10
2023-05-13T22:07:38.147Z,10.00
2023-05-13T22:12:41.294Z,11.50
2023-05-13T22:17:44.446Z,12.90
2023-05-13T22:22:48.326Z,11.40
2023-05-13T22:27:51.905Z,11.90
2023-05-13T22:32:56.088Z,11.00
2023-05-13T22:37:59.220Z,11.90
2023-05-13T22:43:03.312Z,12.40
2023-05-13T22:48:06.657Z,14.80
2023-05-13T22:53:09.840Z,14.00
2023-05-13T22:58:13.158Z,14.20
2023-05-13T23:03:16.366Z,11.70
2023-05-13T23:08:19.538Z,12.90
2023-05-13T23:13:22.682Z,12.50
2023-05-13T23:18:25.876Z,11.70
2023-05-13T23:23:29.059Z,12.50
2023-05-13T23:28:33.391Z,12.20
2023-05-13T23:33:36.524Z,13.30
2023-05-13T23:38:39.946Z,13.20
2023-05-13T23:43:44.115Z,12.90
2023-05-13T23:48:47.304Z,13.10
2023-05-13T23:53:50.512Z,12.50
2023-05-13T23:58:53.684Z,12.00
